KCRS/CRS METAR and TAF weather

Enter ICAO airport designator
Station Type Date Time Source
KCRS METAR 2018/01/22 19:53 UTC NOAA

KCRS 221953Z AUTO 28019KT 10SM CLR 16/M04 A3001 RMK AO2 PK WND 29029/1924 SLP162 T01561039


Station Type Date Time Source
KCRS Decoded METAR 2018/01/22 19:53 UTC NOAA

CORSICANA AIRFIELD, TX, United States (KCRS) 32-01N 96-23W 133M
Jan 22, 2018 - 02:53 PM EST / 2018.01.22 1953 UTC
Wind: from the W (280 degrees) at 22 MPH (19 KT):0
Visibility: 10 mile(s):0
Sky conditions: clear
Temperature: 60.1 F (15.6 C)
Dew Point: 25.0 F (-3.9 C)
Relative Humidity: 25%
Pressure (altimeter): 30.01 in. Hg (1016 hPa)
ob: KCRS 221953Z AUTO 28019KT 10SM CLR 16/M04 A3001 RMK AO2 PK WND 29029/1924 SLP162 T01561039
cycle: 20

Station Type Date Time Source
KCRS TAF UTC NOAA

Error!


Example: see airport list